createdAt,value
2023-05-05T00:01:52.295Z,2.50
2023-05-05T00:04:22.792Z,2.45
2023-05-05T00:06:51.645Z,2.38
2023-05-05T00:09:19.430Z,2.40
2023-05-05T00:11:47.289Z,2.50
2023-05-05T00:14:14.986Z,2.17
2023-05-05T00:16:43.110Z,2.30
2023-05-05T00:19:11.268Z,2.67
2023-05-05T00:24:10.180Z,2.60
2023-05-05T00:26:38.153Z,2.45
2023-05-05T00:29:06.448Z,2.70
2023-05-05T00:31:34.322Z,2.20
2023-05-05T00:34:02.192Z,2.38
2023-05-05T00:36:30.441Z,2.72
2023-05-05T00:38:58.137Z,2.38
2023-05-05T00:41:27.408Z,2.83
2023-05-05T00:43:55.211Z,2.40
2023-05-05T00:46:25.198Z,3.80
2023-05-05T00:48:53.322Z,2.53
2023-05-05T00:56:17.923Z,2.47
2023-05-05T00:58:47.206Z,2.38
2023-05-05T01:01:15.719Z,2.33
2023-05-05T01:06:19.187Z,2.35
2023-05-05T01:09:05.597Z,2.42
2023-05-05T01:11:36.004Z,3.00
2023-05-05T01:14:11.249Z,2.70
2023-05-05T01:16:41.662Z,2.95
2023-05-05T01:19:15.752Z,3.45
2023-05-05T01:21:44.725Z,2.90
2023-05-05T01:24:18.733Z,3.15
2023-05-05T01:26:53.880Z,3.00
2023-05-05T01:29:39.597Z,3.53
2023-05-05T01:32:10.819Z,3.90
2023-05-05T01:34:41.570Z,3.67
2023-05-05T01:37:12.212Z,3.53
2023-05-05T01:39:42.007Z,3.30
2023-05-05T01:42:13.830Z,4.00
2023-05-05T01:44:43.323Z,3.25
2023-05-05T01:47:13.165Z,3.85
2023-05-05T01:49:41.866Z,3.25
2023-05-05T01:52:10.237Z,3.13
2023-05-05T01:54:38.411Z,3.17
2023-05-05T01:57:07.635Z,2.75
2023-05-05T01:59:37.100Z,3.63
2023-05-05T02:02:05.252Z,2.95
2023-05-05T02:07:03.304Z,2.47
2023-05-05T02:09:31.494Z,3.60
2023-05-05T02:14:28.395Z,3.15
2023-05-05T02:16:57.554Z,3.28
2023-05-05T02:19:28.510Z,3.25
2023-05-05T02:21:56.374Z,3.17
2023-05-05T02:24:26.462Z,3.55
2023-05-05T02:26:54.667Z,3.25
2023-05-05T02:29:25.588Z,2.92
2023-05-05T02:31:55.163Z,2.85
2023-05-05T02:34:28.498Z,3.13
2023-05-05T02:36:58.418Z,3.80
2023-05-05T02:39:32.084Z,3.63
2023-05-05T02:42:04.081Z,4.65
2023-05-05T02:44:33.605Z,3.63
2023-05-05T02:47:03.845Z,3.17
2023-05-05T02:49:32.934Z,3.80
2023-05-05T02:54:34.985Z,3.20
2023-05-05T02:57:08.346Z,3.20
2023-05-05T02:59:39.282Z,4.30
2023-05-05T03:02:14.848Z,4.40
2023-05-05T03:04:43.763Z,3.28
2023-05-05T03:07:14.342Z,3.17
2023-05-05T03:09:52.568Z,2.85
2023-05-05T03:12:22.267Z,3.20
2023-05-05T03:17:32.087Z,3.22
2023-05-05T03:20:03.475Z,4.03
2023-05-05T03:22:36.465Z,4.45
2023-05-05T03:25:07.253Z,3.55
2023-05-05T03:27:35.168Z,4.32
2023-05-05T03:32:32.296Z,3.03
2023-05-05T03:35:00.303Z,3.85
2023-05-05T03:37:32.746Z,3.65
2023-05-05T03:40:00.977Z,4.70
2023-05-05T03:42:30.912Z,3.92
2023-05-05T03:44:59.006Z,4.50
2023-05-05T03:47:27.630Z,3.45
2023-05-05T03:49:57.389Z,3.88
2023-05-05T03:52:26.415Z,3.90
2023-05-05T03:54:54.675Z,3.05
2023-05-05T03:57:22.437Z,3.42
2023-05-05T03:59:51.727Z,3.03
2023-05-05T04:02:19.642Z,4.35
2023-05-05T04:04:48.615Z,2.95
2023-05-05T04:07:16.385Z,3.45
2023-05-05T04:09:45.408Z,3.47
2023-05-05T04:12:14.179Z,3.63
2023-05-05T04:14:42.180Z,3.03
2023-05-05T04:17:12.860Z,2.92
2023-05-05T04:19:41.160Z,3.03
2023-05-05T04:22:09.944Z,2.80
2023-05-05T04:24:37.940Z,2.95
2023-05-05T04:27:05.908Z,3.38
2023-05-05T04:29:35.498Z,4.78
2023-05-05T04:32:04.062Z,3.53
2023-05-05T04:34:33.419Z,3.67
2023-05-05T04:37:01.809Z,3.58
2023-05-05T04:39:31.373Z,3.75
2023-05-05T04:41:59.754Z,3.08
2023-05-05T04:44:27.630Z,3.30
2023-05-05T04:46:55.679Z,3.17
2023-05-05T04:51:52.631Z,3.05
2023-05-05T04:54:20.639Z,3.33
2023-05-05T04:56:48.616Z,3.08
2023-05-05T04:59:16.536Z,3.40
2023-05-05T05:01:44.443Z,3.20
2023-05-05T05:04:12.887Z,3.40
2023-05-05T05:06:40.758Z,2.85
2023-05-05T05:09:09.904Z,2.90
2023-05-05T05:11:37.903Z,3.38
2023-05-05T05:14:05.734Z,4.15
2023-05-05T05:16:33.859Z,2.97
2023-05-05T05:19:02.101Z,3.03
2023-05-05T05:21:31.706Z,3.40
2023-05-05T05:24:00.542Z,2.55
2023-05-05T05:26:29.875Z,3.38
2023-05-05T05:28:58.150Z,2.72
2023-05-05T05:31:26.391Z,3.00
2023-05-05T05:36:22.054Z,2.70
2023-05-05T05:38:50.183Z,2.72
2023-05-05T05:41:18.139Z,2.60
2023-05-05T05:43:47.386Z,3.05
2023-05-05T05:46:15.578Z,3.50
2023-05-05T05:48:44.240Z,3.05
2023-05-05T05:51:11.996Z,2.55
2023-05-05T05:53:40.112Z,3.60
2023-05-05T05:56:09.887Z,2.70
2023-05-05T05:58:38.305Z,2.65
2023-05-05T06:01:07.560Z,2.30
2023-05-05T06:03:36.337Z,2.67
2023-05-05T06:08:32.317Z,2.13
2023-05-05T06:13:28.632Z,2.45
2023-05-05T06:18:25.869Z,2.85
2023-05-05T06:20:53.950Z,2.90
2023-05-05T06:23:26.511Z,2.40
2023-05-05T06:25:59.642Z,2.95
2023-05-05T06:28:27.475Z,2.67
2023-05-05T06:30:55.310Z,2.40
2023-05-05T06:33:23.339Z,3.22
2023-05-05T06:35:54.336Z,2.67
2023-05-05T06:38:22.161Z,2.45
2023-05-05T06:40:50.705Z,3.10
2023-05-05T06:43:18.808Z,2.45
2023-05-05T06:45:53.604Z,3.15
2023-05-05T06:48:21.483Z,2.90
2023-05-05T06:50:49.291Z,2.38
2023-05-05T06:53:18.674Z,2.70
2023-05-05T06:55:46.982Z,2.50
2023-05-05T06:58:14.848Z,2.42
2023-05-05T07:00:43.513Z,3.00
2023-05-05T07:03:11.700Z,3.08
2023-05-05T07:05:39.613Z,2.95
2023-05-05T07:08:09.070Z,2.75
2023-05-05T07:10:38.330Z,3.05
2023-05-05T07:13:07.453Z,2.80
2023-05-05T07:15:35.328Z,2.67
2023-05-05T07:18:03.312Z,3.30
2023-05-05T07:20:31.060Z,2.38
2023-05-05T07:22:58.981Z,2.30
2023-05-05T07:25:26.818Z,2.78
2023-05-05T07:27:56.381Z,2.83
2023-05-05T07:30:25.992Z,2.20
2023-05-05T07:32:55.152Z,2.47
2023-05-05T07:35:23.272Z,2.53
2023-05-05T07:37:51.280Z,3.13
2023-05-05T07:40:19.226Z,2.78
2023-05-05T07:42:47.856Z,2.78
2023-05-05T07:45:17.203Z,2.20
2023-05-05T07:47:45.068Z,3.08
2023-05-05T07:50:13.238Z,2.47
2023-05-05T07:55:11.744Z,2.45
2023-05-05T08:00:08.322Z,2.33
2023-05-05T08:02:44.170Z,2.03
2023-05-05T08:05:12.738Z,2.13
2023-05-05T08:07:41.534Z,2.55
2023-05-05T08:10:10.634Z,2.15
2023-05-05T08:12:38.458Z,2.20
2023-05-05T08:15:06.969Z,2.17
2023-05-05T08:17:46.262Z,2.13
2023-05-05T08:20:14.118Z,2.15
2023-05-05T08:22:42.474Z,2.55
2023-05-05T08:25:11.114Z,2.20
2023-05-05T08:27:39.000Z,2.20
2023-05-05T08:30:07.659Z,1.92
2023-05-05T08:32:35.530Z,2.58
2023-05-05T08:35:06.066Z,2.15
2023-05-05T08:37:34.314Z,2.20
2023-05-05T08:40:02.246Z,1.88
2023-05-05T08:42:38.015Z,2.15
2023-05-05T08:45:07.956Z,2.17
2023-05-05T08:47:36.707Z,2.15
2023-05-05T08:50:06.818Z,2.28
2023-05-05T08:52:39.418Z,2.25
2023-05-05T08:55:13.659Z,2.03
2023-05-05T08:57:45.208Z,2.30
2023-05-05T09:00:13.849Z,1.83
2023-05-05T09:02:42.937Z,2.35
2023-05-05T09:05:12.318Z,2.15
2023-05-05T09:07:41.344Z,1.85
2023-05-05T09:10:09.819Z,2.22
2023-05-05T09:12:40.392Z,1.70
2023-05-05T09:15:09.468Z,2.50
2023-05-05T09:17:37.472Z,2.60
2023-05-05T09:20:07.065Z,2.15
2023-05-05T09:22:39.680Z,2.78
2023-05-05T09:25:08.759Z,2.40
2023-05-05T09:27:37.276Z,2.30
2023-05-05T09:30:05.662Z,2.33
2023-05-05T09:32:44.396Z,2.20
2023-05-05T09:35:12.280Z,2.70
2023-05-05T09:37:41.685Z,2.25
2023-05-05T09:40:10.245Z,1.80
2023-05-05T09:42:38.834Z,1.88
2023-05-05T09:45:25.197Z,1.60
2023-05-05T09:47:58.730Z,2.28
2023-05-05T09:50:30.727Z,1.95
2023-05-05T09:53:01.063Z,1.38
2023-05-05T09:55:29.119Z,1.70
2023-05-05T10:00:38.472Z,1.67
2023-05-05T10:03:06.777Z,1.95
2023-05-05T10:05:34.689Z,1.83
2023-05-05T10:08:13.601Z,1.95
2023-05-05T10:10:47.156Z,2.10
2023-05-05T10:13:15.971Z,1.67
2023-05-05T10:15:44.898Z,2.45
2023-05-05T10:18:15.769Z,1.58
2023-05-05T10:20:44.344Z,1.90
2023-05-05T10:23:15.941Z,2.08
2023-05-05T10:25:47.338Z,2.20
2023-05-05T10:28:18.043Z,1.80
2023-05-05T10:30:48.283Z,1.88
2023-05-05T10:33:30.823Z,1.42
2023-05-05T10:36:01.828Z,1.77
2023-05-05T10:38:31.842Z,2.25
2023-05-05T10:41:00.844Z,2.42
2023-05-05T10:43:29.320Z,2.00
2023-05-05T10:45:57.543Z,1.80
2023-05-05T10:48:28.864Z,1.92
2023-05-05T10:51:00.190Z,2.00
2023-05-05T10:53:30.143Z,1.80
2023-05-05T10:56:04.266Z,1.88
2023-05-05T10:58:46.856Z,1.58
2023-05-05T11:01:28.843Z,1.55
2023-05-05T11:04:11.707Z,1.80
2023-05-05T11:06:39.580Z,1.77
2023-05-05T11:09:22.129Z,1.98
2023-05-05T11:12:04.441Z,1.52
2023-05-05T11:14:32.481Z,1.98
2023-05-05T11:17:00.376Z,1.45
2023-05-05T11:19:47.759Z,1.67
2023-05-05T11:22:16.508Z,1.77
2023-05-05T11:24:44.830Z,1.88
2023-05-05T11:27:14.176Z,1.60
2023-05-05T11:30:00.711Z,1.50
2023-05-05T11:32:28.652Z,1.65
2023-05-05T11:34:57.054Z,1.40
2023-05-05T11:37:25.339Z,1.98
2023-05-05T11:39:59.600Z,1.75
2023-05-05T11:42:30.230Z,2.00
2023-05-05T11:44:58.259Z,1.98
2023-05-05T11:47:29.903Z,2.03
2023-05-05T11:49:58.191Z,1.77
2023-05-05T11:52:27.500Z,2.20
2023-05-05T11:55:00.874Z,2.47
2023-05-05T11:57:30.448Z,2.50
2023-05-05T11:59:59.459Z,2.30
2023-05-05T12:02:29.636Z,2.35
2023-05-05T12:04:57.806Z,2.70
2023-05-05T12:09:53.751Z,2.30
2023-05-05T12:12:21.878Z,2.20
2023-05-05T12:17:21.727Z,2.33
2023-05-05T12:19:50.714Z,2.35
2023-05-05T12:22:22.807Z,2.95
2023-05-05T12:24:55.315Z,2.60
2023-05-05T12:27:23.205Z,2.40
2023-05-05T12:29:51.689Z,2.20
2023-05-05T12:32:21.954Z,2.55
2023-05-05T12:34:50.146Z,2.10
2023-05-05T12:37:19.247Z,2.40
2023-05-05T12:39:47.267Z,2.40
2023-05-05T12:42:15.306Z,2.10
2023-05-05T12:44:44.324Z,1.80
2023-05-05T12:47:12.516Z,2.08
2023-05-05T12:49:48.424Z,1.88
2023-05-05T12:52:16.391Z,2.20
2023-05-05T12:54:54.827Z,1.73
2023-05-05T12:57:23.230Z,1.73
2023-05-05T12:59:51.457Z,1.20
2023-05-05T13:02:19.450Z,1.40
2023-05-05T13:07:17.248Z,0.90
2023-05-05T13:09:45.211Z,0.85
2023-05-05T13:14:41.134Z,1.70
2023-05-05T13:17:09.308Z,1.73
2023-05-05T13:22:10.914Z,1.25
2023-05-05T13:24:50.757Z,1.48
2023-05-05T13:27:20.001Z,1.50
2023-05-05T13:32:15.633Z,1.58
2023-05-05T13:34:44.168Z,1.30
2023-05-05T13:37:12.222Z,1.00
2023-05-05T13:39:41.393Z,1.20
2023-05-05T13:42:09.279Z,1.15
2023-05-05T13:44:37.198Z,1.02
2023-05-05T13:49:32.659Z,0.98
2023-05-05T13:54:28.152Z,0.93
2023-05-05T13:56:57.943Z,0.82
2023-05-05T13:59:26.524Z,1.15
2023-05-05T14:01:54.366Z,0.60
2023-05-05T14:04:22.215Z,1.17
2023-05-05T14:09:17.683Z,1.10
2023-05-05T14:11:45.378Z,1.08
2023-05-05T14:14:14.648Z,0.80
2023-05-05T14:16:42.562Z,1.00
2023-05-05T14:21:38.239Z,0.73
2023-05-05T14:26:33.511Z,0.77
2023-05-05T14:29:01.288Z,0.80
2023-05-05T14:31:30.535Z,0.82
2023-05-05T14:33:58.690Z,1.00
2023-05-05T14:36:26.891Z,0.80
2023-05-05T14:38:54.774Z,0.68
2023-05-05T14:41:22.658Z,0.80
2023-05-05T14:43:50.496Z,0.93
2023-05-05T14:48:48.387Z,0.80
2023-05-05T14:51:16.624Z,0.98
2023-05-05T14:53:44.455Z,0.60
2023-05-05T14:58:39.763Z,0.57
2023-05-05T15:01:07.812Z,0.70
2023-05-05T15:06:05.271Z,0.60
2023-05-05T15:08:33.091Z,0.77
2023-05-05T15:11:00.953Z,0.88
2023-05-05T15:13:29.772Z,0.60
2023-05-05T15:15:57.739Z,0.63
2023-05-05T15:20:53.074Z,0.68
2023-05-05T15:23:22.272Z,0.80
2023-05-05T15:25:50.249Z,0.60
2023-05-05T15:28:18.715Z,0.70
2023-05-05T15:30:46.443Z,0.70
2023-05-05T15:33:14.304Z,1.75
2023-05-05T15:35:42.266Z,1.80
2023-05-05T15:38:10.112Z,1.80
2023-05-05T15:40:39.261Z,1.77
2023-05-05T15:43:07.214Z,1.77
2023-05-05T15:48:02.871Z,1.98
2023-05-05T15:52:59.131Z,1.88
2023-05-05T15:57:55.891Z,1.90
2023-05-05T16:00:23.881Z,1.95
2023-05-05T16:02:51.755Z,2.15
2023-05-05T16:07:49.939Z,1.52
2023-05-05T16:10:19.431Z,1.52
2023-05-05T16:12:47.464Z,2.05
2023-05-05T16:17:44.317Z,2.03
2023-05-05T16:20:12.693Z,1.90
2023-05-05T16:22:40.518Z,1.77
2023-05-05T16:25:09.100Z,1.58
2023-05-05T16:27:37.020Z,1.73
2023-05-05T16:30:05.247Z,1.20
2023-05-05T16:32:33.280Z,1.65
2023-05-05T16:35:02.827Z,2.08
2023-05-05T16:37:30.794Z,1.10
2023-05-05T16:39:58.863Z,1.50
2023-05-05T16:42:26.958Z,1.10
2023-05-05T16:44:54.872Z,1.25
2023-05-05T16:47:22.719Z,0.98
2023-05-05T16:52:19.514Z,1.17
2023-05-05T16:54:48.015Z,1.02
2023-05-05T16:57:15.856Z,0.95
2023-05-05T16:59:43.731Z,1.40
2023-05-05T17:04:39.075Z,1.13
2023-05-05T17:07:07.001Z,1.30
2023-05-05T17:12:04.237Z,1.00
2023-05-05T17:14:33.572Z,1.02
2023-05-05T17:17:01.436Z,1.67
2023-05-05T17:19:29.272Z,1.50
2023-05-05T17:21:57.089Z,1.13
2023-05-05T17:24:25.226Z,1.25
2023-05-05T17:26:53.115Z,0.90
2023-05-05T17:29:23.384Z,1.38
2023-05-05T17:31:51.742Z,1.08
2023-05-05T17:34:19.496Z,1.17
2023-05-05T17:36:47.384Z,1.20
2023-05-05T17:39:15.246Z,1.42
2023-05-05T17:44:10.689Z,1.13
2023-05-05T17:46:40.418Z,1.30
2023-05-05T17:49:08.229Z,0.90
2023-05-05T17:54:03.733Z,1.20
2023-05-05T17:58:59.013Z,1.20
2023-05-05T18:01:27.664Z,1.13
2023-05-05T18:03:57.543Z,1.40
2023-05-05T18:06:25.713Z,1.13
2023-05-05T18:08:53.640Z,1.23
2023-05-05T18:11:23.837Z,1.48
2023-05-05T18:13:51.722Z,1.60
2023-05-05T18:16:19.703Z,1.48
2023-05-05T18:21:16.543Z,1.27
2023-05-05T18:23:44.268Z,1.50
2023-05-05T18:26:12.124Z,1.38
2023-05-05T18:28:39.958Z,1.45
2023-05-05T18:31:08.147Z,1.45
2023-05-05T18:33:36.074Z,1.35
2023-05-05T18:36:04.158Z,1.40
2023-05-05T18:41:00.928Z,1.40
2023-05-05T18:43:28.693Z,1.55
2023-05-05T18:45:56.750Z,1.25
2023-05-05T18:50:52.660Z,1.85
2023-05-05T18:53:20.897Z,1.48
2023-05-05T18:55:49.354Z,1.40
2023-05-05T18:58:18.523Z,1.65
2023-05-05T19:00:46.557Z,1.52
2023-05-05T19:03:14.467Z,1.60
2023-05-05T19:08:10.079Z,0.95
2023-05-05T19:10:37.986Z,1.77
2023-05-05T19:13:06.032Z,1.23
2023-05-05T19:15:35.334Z,1.00
2023-05-05T19:18:03.281Z,1.08
2023-05-05T19:23:03.839Z,0.98
2023-05-05T19:25:31.822Z,0.55
2023-05-05T19:27:59.790Z,1.00
2023-05-05T19:30:27.707Z,0.70
2023-05-05T19:32:56.978Z,0.88
2023-05-05T19:35:24.783Z,0.98
2023-05-05T19:37:52.626Z,0.77
2023-05-05T19:40:20.722Z,0.80
2023-05-05T19:42:48.730Z,0.95
2023-05-05T19:45:16.768Z,1.00
2023-05-05T19:50:15.384Z,0.75
2023-05-05T19:52:43.378Z,1.08
2023-05-05T19:55:12.974Z,0.90
2023-05-05T19:57:41.103Z,0.90
2023-05-05T20:00:10.584Z,0.93
2023-05-05T20:02:38.762Z,1.05
2023-05-05T20:05:07.114Z,1.30
2023-05-05T20:07:36.521Z,0.90
2023-05-05T20:10:04.528Z,0.95
2023-05-05T20:12:32.413Z,1.20
2023-05-05T20:15:00.214Z,1.20
2023-05-05T20:17:28.156Z,1.40
2023-05-05T20:19:55.872Z,1.00
2023-05-05T20:22:23.763Z,1.02
2023-05-05T20:24:53.454Z,1.15
2023-05-05T20:27:21.608Z,1.30
2023-05-05T20:29:49.494Z,1.10
2023-05-05T20:32:20.469Z,1.20
2023-05-05T20:34:48.540Z,1.30
2023-05-05T20:37:16.439Z,1.42
2023-05-05T20:39:44.210Z,0.90
2023-05-05T20:42:13.567Z,1.17
2023-05-05T20:44:42.133Z,1.10
2023-05-05T20:47:09.888Z,0.70
2023-05-05T20:49:37.944Z,1.60
2023-05-05T20:52:06.035Z,1.17
2023-05-05T20:57:02.631Z,1.63
2023-05-05T20:59:32.300Z,1.25
2023-05-05T21:02:00.274Z,1.67
2023-05-05T21:09:23.334Z,1.73
2023-05-05T21:11:51.115Z,1.33
2023-05-05T21:14:19.065Z,1.35
2023-05-05T21:16:48.374Z,1.38
2023-05-05T21:19:16.418Z,1.50
2023-05-05T21:21:44.427Z,1.58
2023-05-05T21:24:12.926Z,1.42
2023-05-05T21:26:43.072Z,1.60
2023-05-05T21:29:11.057Z,1.77
2023-05-05T21:31:38.963Z,1.83
2023-05-05T21:34:08.326Z,1.48
2023-05-05T21:36:36.853Z,1.40
2023-05-05T21:39:04.776Z,1.83
2023-05-05T21:41:32.643Z,1.65
2023-05-05T21:44:00.764Z,1.48
2023-05-05T21:46:28.634Z,1.90
2023-05-05T21:48:56.412Z,2.13
2023-05-05T21:51:25.590Z,1.67
2023-05-05T21:53:53.531Z,1.92
2023-05-05T21:56:21.271Z,1.48
2023-05-05T21:58:50.284Z,1.60
2023-05-05T22:01:18.390Z,1.88
2023-05-05T22:03:47.730Z,1.52
2023-05-05T22:06:17.429Z,1.60
2023-05-05T22:08:46.634Z,1.77
2023-05-05T22:11:14.409Z,1.58
2023-05-05T22:13:42.250Z,2.15
2023-05-05T22:16:10.552Z,1.77
2023-05-05T22:18:38.399Z,1.70
2023-05-05T22:21:06.278Z,1.60
2023-05-05T22:23:34.119Z,1.50
2023-05-05T22:26:03.383Z,1.45
2023-05-05T22:28:31.416Z,1.20
2023-05-05T22:30:59.167Z,1.92
2023-05-05T22:33:27.291Z,1.40
2023-05-05T22:35:55.124Z,1.48
2023-05-05T22:38:22.932Z,1.50
2023-05-05T22:40:50.794Z,2.00
2023-05-05T22:43:19.957Z,1.63
2023-05-05T22:45:47.881Z,1.50
2023-05-05T22:48:15.680Z,1.52
2023-05-05T22:50:43.499Z,1.58
2023-05-05T22:53:11.488Z,1.83
2023-05-05T22:55:39.191Z,1.63
2023-05-05T22:58:07.248Z,1.83
2023-05-05T23:00:36.492Z,1.67
2023-05-05T23:03:04.446Z,1.70
2023-05-05T23:05:32.380Z,2.60
2023-05-05T23:08:01.321Z,1.40
2023-05-05T23:10:30.179Z,2.40
2023-05-05T23:12:58.120Z,1.90
2023-05-05T23:15:26.102Z,1.83
2023-05-05T23:17:55.385Z,1.55
2023-05-05T23:20:23.407Z,1.90
2023-05-05T23:22:51.232Z,1.73
2023-05-05T23:25:19.920Z,2.17
2023-05-05T23:27:48.017Z,1.80
2023-05-05T23:30:15.961Z,1.65
2023-05-05T23:32:45.017Z,1.83
2023-05-05T23:35:14.424Z,1.60
2023-05-05T23:37:42.210Z,1.35
2023-05-05T23:40:10.379Z,1.67
2023-05-05T23:47:33.427Z,1.40
2023-05-05T23:50:01.270Z,1.70
2023-05-05T23:52:30.580Z,1.92
2023-05-05T23:54:58.404Z,1.45
2023-05-05T23:57:26.352Z,1.77
2023-05-05T23:59:54.055Z,1.88
